Terminal Aerodrome Forecast
Issued by NWS Quad Cities IA IL

Home | Current Version | Previous Version | Text Only | Print | Product List | Glossary On
Versions: 1 2 3 4 5 6 7 8 9 10 11 12 13 14 15 16 17 18 19 20 21 22 23 24 25 26 27
000
FTUS43 KDVN 021100
TAFMLI
TAF
KMLI 021139Z 0212/0312 00000KT 1 1/2SM BR SCT002 BKN250
     FM021300 VRB03KT 4SM BR BKN250
     FM021400 28007KT P6SM BKN250
     FM021700 29011KT P6SM FEW050 SCT250
     FM022300 VRB03KT P6SM SKC
     FM030900 14005KT P6SM SCT100=

USA.gov is the U.S. government's official web portal to all federal, state and local government web resources and services.